Terminal Aerodrome Forecast
Issued by NWS Cleveland, OH

Home | Current Version | Previous Version | Graphics & Text | Print | Product List | Glossary On
Versions: 1 2 3 4 5 6 7 8 9 10 11 12 13 14 15 16 17
000
FTUS41 KCLE 201401 AAB
TAFERI
TAF AMD
KERI 201401Z 2014/2112 25012G18KT P6SM VCSH SCT028 BKN035
      TEMPO 2014/2015 BKN028
     FM201500 25012G20KT P6SM SCT040
     FM210200 24010KT P6SM VCSH SCT040 BKN080
     FM210600 24005KT P6SM BKN080=

USA.gov is the U.S. government's official web portal to all federal, state and local government web resources and services.